Terminal Aerodrome Forecast
Issued by NWS

Home | Current Version | Previous Version | Text Only | Print | Product List | Glossary On
Versions: 1 2 3 4 5 6 7 8 9 10 11 12 13 14 15
000
FTUS41 KBGM 261120
TAFRME
TAF
KRME 261120Z 2612/2712 VRB03KT P6SM SCT250
     FM261600 15005KT P6SM SCT050 BKN100
      TEMPO 2618/2622 5SM -SHRA OVC040
     FM270600 11003KT P6SM SCT100=

USA.gov is the U.S. government's official web portal to all federal, state and local government web resources and services.